93OI weather

Stouffer's Dublin Heliport
Dublin, Ohio, United States

Public forecast

Using degrees Fahrenheit for public forecast. Weather courtesy of forecast.io.

METAR (pilot weather report)

Closest report is The Ohio State University Airport - Don Scott Field, 3.0 nm (5.6 km) ESE. Retrieved 2019/05/27 07:06 UTC (30 minutes ago):

KOSU 270706Z AUTO 36006KT 8SM BKN007 18/17 A3003 RMK AO2 T01780172 $

TAF (pilot weather forecast)

Closest forecast is John Glenn Columbus International Airport, 12.7 nm (23.4 km) ESE. Retrieved 2019/05/27 06:39 UTC (57 minutes ago):

TAF KCMH 270537Z 2706/2806 35003KT P6SM SCT100 TEMPO 2708/2712 5SM BR FM271200 02003KT P6SM SCT008 FM271600 00000KT P6SM SCT040 FM272000 19006KT P6SM VCSH BKN040 FM272300 18005KT P6SM SCT040 BKN150